createdAt,value
2022-10-27T00:01:09.682Z,1.50
2022-10-27T00:04:13.821Z,1.27
2022-10-27T00:07:18.121Z,1.33
2022-10-27T00:10:20.837Z,1.30
2022-10-27T00:13:23.131Z,1.20
2022-10-27T00:16:26.457Z,1.30
2022-10-27T00:19:28.707Z,1.60
2022-10-27T00:22:31.414Z,1.48
2022-10-27T00:25:34.023Z,1.48
2022-10-27T00:29:06.914Z,1.23
2022-10-27T00:32:09.373Z,1.27
2022-10-27T00:35:12.028Z,1.58
2022-10-27T00:38:13.968Z,1.13
2022-10-27T00:41:29.759Z,1.40
2022-10-27T00:44:33.891Z,1.25
2022-10-27T00:50:39.967Z,1.15
2022-10-27T00:53:43.371Z,1.08
2022-10-27T00:56:47.771Z,1.20
2022-10-27T00:59:50.321Z,1.17
2022-10-27T01:02:53.700Z,1.20
2022-10-27T01:05:58.803Z,1.15
2022-10-27T01:12:03.937Z,1.15
2022-10-27T01:15:07.733Z,1.20
2022-10-27T01:22:01.642Z,1.10
2022-10-27T01:25:30.825Z,1.75
2022-10-27T01:28:45.175Z,1.50
2022-10-27T01:35:03.898Z,1.15
2022-10-27T01:38:18.042Z,1.40
2022-10-27T01:41:35.168Z,1.10
2022-10-27T01:44:44.175Z,1.05
2022-10-27T01:47:46.785Z,1.10
2022-10-27T01:51:01.234Z,1.45
2022-10-27T01:54:07.006Z,1.45
2022-10-27T01:57:29.450Z,1.48
2022-10-27T02:00:58.946Z,1.23
2022-10-27T02:04:31.143Z,1.30
2022-10-27T02:07:56.503Z,1.30
2022-10-27T02:11:03.504Z,1.83
2022-10-27T02:14:07.867Z,1.17
2022-10-27T02:17:13.168Z,1.10
2022-10-27T02:20:23.217Z,1.45
2022-10-27T02:23:26.799Z,1.02
2022-10-27T02:26:43.418Z,1.35
2022-10-27T02:29:48.954Z,1.45
2022-10-27T02:32:51.837Z,0.85
2022-10-27T02:35:57.342Z,0.90
2022-10-27T02:38:59.613Z,1.35
2022-10-27T02:42:04.671Z,1.15
2022-10-27T02:45:07.375Z,1.20
2022-10-27T02:48:09.750Z,1.17
2022-10-27T02:51:12.910Z,1.42
2022-10-27T02:54:16.628Z,1.57
2022-10-27T02:57:19.780Z,1.40
2022-10-27T03:00:22.219Z,1.30
2022-10-27T03:03:25.926Z,1.33
2022-10-27T03:06:28.504Z,1.30
2022-10-27T03:09:30.967Z,1.30
2022-10-27T03:12:33.809Z,1.13
2022-10-27T03:15:36.570Z,0.85
2022-10-27T03:18:38.915Z,1.40
2022-10-27T03:21:41.353Z,1.30
2022-10-27T03:24:43.679Z,1.27
2022-10-27T03:27:45.764Z,1.63
2022-10-27T03:30:49.366Z,1.10
2022-10-27T03:33:51.312Z,1.50
2022-10-27T03:36:53.745Z,1.17
2022-10-27T03:39:56.235Z,1.67
2022-10-27T03:42:59.163Z,1.33
2022-10-27T03:46:01.825Z,1.40
2022-10-27T03:49:04.201Z,1.77
2022-10-27T03:52:06.815Z,1.20
2022-10-27T03:55:09.460Z,1.30
2022-10-27T03:58:17.039Z,1.05
2022-10-27T04:01:19.828Z,1.13
2022-10-27T04:04:22.457Z,1.13
2022-10-27T04:07:25.406Z,1.13
2022-10-27T04:10:28.339Z,1.83
2022-10-27T04:13:31.073Z,1.20
2022-10-27T04:16:33.219Z,1.33
2022-10-27T04:19:36.720Z,1.38
2022-10-27T04:22:40.071Z,1.67
2022-10-27T04:25:44.950Z,1.20
2022-10-27T04:31:49.462Z,1.20
2022-10-27T04:34:52.355Z,1.63
2022-10-27T04:37:56.821Z,1.27
2022-10-27T04:41:02.465Z,1.00
2022-10-27T04:44:04.805Z,1.60
2022-10-27T04:47:06.895Z,1.83
2022-10-27T04:50:10.100Z,1.60
2022-10-27T04:53:12.568Z,1.25
2022-10-27T04:56:15.065Z,1.30
2022-10-27T04:59:17.161Z,1.45
2022-10-27T05:02:22.126Z,1.02
2022-10-27T05:05:26.105Z,1.40
2022-10-27T05:11:31.489Z,1.52
2022-10-27T05:14:33.830Z,1.23
2022-10-27T05:17:36.505Z,1.45
2022-10-27T05:20:39.515Z,1.42
2022-10-27T05:23:45.356Z,1.63
2022-10-27T05:26:50.301Z,1.40
2022-10-27T05:29:52.799Z,1.35
2022-10-27T05:32:55.568Z,1.30
2022-10-27T05:35:58.042Z,1.33
2022-10-27T05:39:00.754Z,1.52
2022-10-27T05:42:02.975Z,1.42
2022-10-27T05:45:06.232Z,1.33
2022-10-27T05:48:10.652Z,1.17
2022-10-27T05:51:13.997Z,1.70
2022-10-27T05:54:18.957Z,1.35
2022-10-27T05:57:23.387Z,1.47
2022-10-27T06:00:28.736Z,1.40
2022-10-27T06:03:31.305Z,1.10
2022-10-27T06:06:33.981Z,1.20
2022-10-27T06:09:36.603Z,1.27
2022-10-27T06:12:38.697Z,1.33
2022-10-27T06:18:46.050Z,1.10
2022-10-27T06:21:48.520Z,1.40
2022-10-27T06:24:50.525Z,1.42
2022-10-27T06:27:54.169Z,1.50
2022-10-27T06:30:57.498Z,1.17
2022-10-27T06:34:00.231Z,1.33
2022-10-27T06:37:06.573Z,1.60
2022-10-27T06:40:12.436Z,1.40
2022-10-27T06:43:15.685Z,1.30
2022-10-27T06:46:19.605Z,1.60
2022-10-27T06:49:21.575Z,1.20
2022-10-27T06:52:23.913Z,1.52
2022-10-27T06:55:25.962Z,1.10
2022-10-27T06:58:28.656Z,1.20
2022-10-27T07:01:32.313Z,1.20
2022-10-27T07:04:35.315Z,1.38
2022-10-27T07:07:38.678Z,1.40
2022-10-27T07:10:42.312Z,1.35
2022-10-27T07:13:44.732Z,1.20
2022-10-27T07:16:47.056Z,1.20
2022-10-27T07:19:49.995Z,1.23
2022-10-27T07:22:52.833Z,1.27
2022-10-27T07:25:54.963Z,1.08
2022-10-27T07:28:57.412Z,1.30
2022-10-27T07:32:00.117Z,1.20
2022-10-27T07:35:03.719Z,1.00
2022-10-27T07:38:07.954Z,1.30
2022-10-27T07:41:10.667Z,1.42
2022-10-27T07:44:13.130Z,1.42
2022-10-27T07:47:15.706Z,1.00
2022-10-27T07:50:25.398Z,1.10
2022-10-27T07:53:30.505Z,1.45
2022-10-27T07:56:34.158Z,1.10
2022-10-27T07:59:37.146Z,1.20
2022-10-27T08:03:06.343Z,1.42
2022-10-27T08:06:09.155Z,1.17
2022-10-27T08:09:14.254Z,1.45
2022-10-27T08:12:20.509Z,1.40
2022-10-27T08:15:22.823Z,1.35
2022-10-27T08:18:25.371Z,1.25
2022-10-27T08:21:27.441Z,1.30
2022-10-27T08:24:30.397Z,1.20
2022-10-27T08:27:33.316Z,1.00
2022-10-27T08:30:39.519Z,1.15
2022-10-27T08:33:46.094Z,1.27
2022-10-27T08:36:48.344Z,1.45
2022-10-27T08:39:50.799Z,1.00
2022-10-27T08:43:32.027Z,1.40
2022-10-27T08:47:05.680Z,1.40
2022-10-27T08:50:22.231Z,1.02
2022-10-27T08:53:31.606Z,1.15
2022-10-27T08:56:41.967Z,1.00
2022-10-27T08:59:45.147Z,1.00
2022-10-27T09:03:12.225Z,1.35
2022-10-27T09:06:33.902Z,1.20
2022-10-27T09:09:53.035Z,1.10
2022-10-27T09:13:01.327Z,1.10
2022-10-27T09:16:12.651Z,0.88
2022-10-27T09:19:32.055Z,0.95
2022-10-27T09:22:41.996Z,1.00
2022-10-27T09:25:47.930Z,1.20
2022-10-27T09:28:56.585Z,1.23
2022-10-27T09:32:24.170Z,1.00
2022-10-27T09:35:31.112Z,1.13
2022-10-27T09:38:33.472Z,0.60
2022-10-27T09:41:36.731Z,1.10
2022-10-27T09:44:39.430Z,1.08
2022-10-27T09:47:44.915Z,0.90
2022-10-27T09:50:58.737Z,0.82
2022-10-27T09:54:03.993Z,0.90
2022-10-27T09:57:23.411Z,0.80
2022-10-27T10:00:28.624Z,0.80
2022-10-27T10:03:31.090Z,1.00
2022-10-27T10:06:59.756Z,0.90
2022-10-27T10:10:05.641Z,0.60
2022-10-27T10:13:15.374Z,1.38
2022-10-27T10:16:18.008Z,1.02
2022-10-27T10:19:24.884Z,1.00
2022-10-27T10:22:31.686Z,0.90
2022-10-27T10:25:42.587Z,0.88
2022-10-27T10:28:45.939Z,0.63
2022-10-27T10:31:49.904Z,0.70
2022-10-27T10:34:53.567Z,1.10
2022-10-27T10:37:56.133Z,0.90
2022-10-27T10:41:01.229Z,1.15
2022-10-27T10:44:15.422Z,0.77
2022-10-27T10:47:28.183Z,1.15
2022-10-27T10:50:34.349Z,0.55
2022-10-27T10:53:39.733Z,0.90
2022-10-27T10:56:44.141Z,0.80
2022-10-27T10:59:47.275Z,0.75
2022-10-27T11:03:03.707Z,0.80
2022-10-27T11:06:14.899Z,0.75
2022-10-27T11:09:17.322Z,1.08
2022-10-27T11:12:30.642Z,0.90
2022-10-27T11:15:43.132Z,0.80
2022-10-27T11:19:06.633Z,0.80
2022-10-27T11:22:23.838Z,0.90
2022-10-27T11:25:33.231Z,0.70
2022-10-27T11:29:14.079Z,1.23
2022-10-27T11:32:27.162Z,1.05
2022-10-27T11:35:38.208Z,1.15
2022-10-27T11:39:06.042Z,0.85
2022-10-27T11:42:44.342Z,1.00
2022-10-27T11:46:17.451Z,0.88
2022-10-27T11:50:14.182Z,0.90
2022-10-27T11:53:41.610Z,1.02
2022-10-27T12:01:19.183Z,0.83
2022-10-27T12:21:19.583Z,1.00
2022-10-27T12:25:09.833Z,0.95
2022-10-27T12:32:31.640Z,0.95
2022-10-27T12:35:37.183Z,1.00
2022-10-27T12:38:45.766Z,0.70
2022-10-27T12:41:48.295Z,1.27
2022-10-27T12:48:10.625Z,0.93
2022-10-27T12:51:36.211Z,1.40
2022-10-27T12:54:48.703Z,1.13
2022-10-27T12:57:57.775Z,1.10
2022-10-27T13:01:31.818Z,1.23
2022-10-27T13:04:48.207Z,1.00
2022-10-27T13:08:09.025Z,0.80
2022-10-27T13:11:34.804Z,0.93
2022-10-27T13:14:51.334Z,1.08
2022-10-27T13:18:15.877Z,1.15
2022-10-27T13:24:51.405Z,1.00
2022-10-27T13:28:23.445Z,1.10
2022-10-27T13:31:27.370Z,1.05
2022-10-27T13:34:29.741Z,1.10
2022-10-27T13:37:50.189Z,1.05
2022-10-27T13:40:55.169Z,0.90
2022-10-27T13:43:58.319Z,1.35
2022-10-27T13:47:04.148Z,1.00
2022-10-27T13:50:33.490Z,1.20
2022-10-27T13:53:36.598Z,1.00
2022-10-27T13:56:39.925Z,1.08
2022-10-27T13:59:45.198Z,1.13
2022-10-27T14:03:19.841Z,0.82
2022-10-27T14:06:27.805Z,0.90
2022-10-27T14:09:36.410Z,0.90
2022-10-27T14:12:38.938Z,1.02
2022-10-27T14:15:41.256Z,0.80
2022-10-27T14:18:43.854Z,1.15
2022-10-27T14:21:54.535Z,1.08
2022-10-27T14:25:05.194Z,1.20
2022-10-27T14:28:20.471Z,1.05
2022-10-27T14:31:24.643Z,1.15
2022-10-27T14:34:27.297Z,1.05
2022-10-27T14:37:31.857Z,0.90
2022-10-27T14:43:44.032Z,0.90
2022-10-27T14:46:49.829Z,1.00
2022-10-27T14:50:03.668Z,1.10
2022-10-27T14:53:06.137Z,0.98
2022-10-27T14:56:20.095Z,0.80
2022-10-27T14:59:27.865Z,0.88
2022-10-27T15:02:31.010Z,0.82
2022-10-27T15:05:46.694Z,1.55
2022-10-27T15:08:55.740Z,0.90
2022-10-27T15:12:00.942Z,1.00
2022-10-27T15:18:46.271Z,0.90
2022-10-27T15:21:58.750Z,1.05
2022-10-27T15:25:04.027Z,1.00
2022-10-27T15:28:10.933Z,1.02
2022-10-27T15:31:22.968Z,1.33
2022-10-27T15:34:46.002Z,1.00
2022-10-27T15:41:55.424Z,1.00
2022-10-27T15:59:33.383Z,1.10
2022-10-27T16:03:09.355Z,1.15
2022-10-27T16:06:36.092Z,0.95
2022-10-27T16:10:08.371Z,0.85
2022-10-27T16:13:49.276Z,1.10
2022-10-27T16:16:54.068Z,1.00
2022-10-27T16:20:01.935Z,1.27
2022-10-27T16:23:11.177Z,1.20
2022-10-27T16:26:14.513Z,1.20
2022-10-27T16:29:20.399Z,1.17
2022-10-27T16:32:23.177Z,1.20
2022-10-27T16:35:27.555Z,1.20
2022-10-27T16:38:29.701Z,1.27
2022-10-27T16:41:32.188Z,1.48
2022-10-27T16:44:34.589Z,1.42
2022-10-27T16:47:36.955Z,1.52
2022-10-27T16:50:39.740Z,1.55
2022-10-27T16:54:51.510Z,1.58
2022-10-27T16:57:59.935Z,1.63
2022-10-27T17:02:12.244Z,1.67
2022-10-27T17:10:17.121Z,1.98
2022-10-27T17:13:40.727Z,1.98
2022-10-27T17:17:13.140Z,2.03
2022-10-27T17:20:31.387Z,1.80
2022-10-27T17:24:01.896Z,2.30
2022-10-27T17:27:13.695Z,2.28
2022-10-27T17:31:25.680Z,2.47
2022-10-27T17:37:55.929Z,2.30
2022-10-27T17:41:13.799Z,2.20
2022-10-27T17:44:16.116Z,1.90
2022-10-27T17:47:18.496Z,2.53
2022-10-27T17:50:20.821Z,2.55
2022-10-27T17:53:23.237Z,2.40
2022-10-27T17:56:31.977Z,2.45
2022-10-27T17:59:37.268Z,1.90
2022-10-27T18:02:39.956Z,1.88
2022-10-27T18:05:42.179Z,2.00
2022-10-27T18:09:13.514Z,2.45
2022-10-27T18:12:26.225Z,1.67
2022-10-27T18:15:36.291Z,1.90
2022-10-27T18:18:41.343Z,2.30
2022-10-27T18:21:47.742Z,1.88
2022-10-27T18:25:11.050Z,2.45
2022-10-27T18:28:13.604Z,2.20
2022-10-27T18:31:19.679Z,2.47
2022-10-27T18:34:22.862Z,2.30
2022-10-27T18:37:25.802Z,2.40
2022-10-27T18:40:28.081Z,2.30
2022-10-27T18:43:30.394Z,2.15
2022-10-27T18:46:32.953Z,1.98
2022-10-27T18:49:48.014Z,2.25
2022-10-27T18:52:50.882Z,2.72
2022-10-27T18:55:53.998Z,1.98
2022-10-27T18:58:58.686Z,2.08
2022-10-27T19:02:01.254Z,2.20
2022-10-27T19:05:04.305Z,2.03
2022-10-27T19:08:06.438Z,2.17
2022-10-27T19:11:14.832Z,2.65
2022-10-27T19:14:17.824Z,2.20
2022-10-27T19:17:20.616Z,2.50
2022-10-27T19:20:22.999Z,2.58
2022-10-27T19:23:26.254Z,2.35
2022-10-27T19:26:31.086Z,2.00
2022-10-27T19:29:33.978Z,2.63
2022-10-27T19:32:36.265Z,2.30
2022-10-27T19:35:38.713Z,2.70
2022-10-27T19:38:41.431Z,2.47
2022-10-27T19:41:43.991Z,1.90
2022-10-27T19:44:46.193Z,2.10
2022-10-27T19:47:48.678Z,2.17
2022-10-27T19:50:50.997Z,2.10
2022-10-27T19:53:56.862Z,2.20
2022-10-27T19:56:59.045Z,2.00
2022-10-27T20:00:07.973Z,2.58
2022-10-27T20:03:11.856Z,2.72
2022-10-27T20:06:16.365Z,2.95
2022-10-27T20:09:23.116Z,2.20
2022-10-27T20:12:29.661Z,2.33
2022-10-27T20:15:32.119Z,2.28
2022-10-27T20:18:34.802Z,2.40
2022-10-27T20:21:37.122Z,2.33
2022-10-27T20:24:39.936Z,2.65
2022-10-27T20:27:42.420Z,2.38
2022-10-27T20:30:44.878Z,2.10
2022-10-27T20:33:47.209Z,1.90
2022-10-27T20:36:49.891Z,2.05
2022-10-27T20:40:20.817Z,2.28
2022-10-27T20:43:29.234Z,1.73
2022-10-27T20:46:33.392Z,2.08
2022-10-27T20:49:36.077Z,2.20
2022-10-27T20:55:43.462Z,2.15
2022-10-27T20:58:46.246Z,2.30
2022-10-27T21:01:49.064Z,2.28
2022-10-27T21:04:52.440Z,1.92
2022-10-27T21:07:55.206Z,2.35
2022-10-27T21:10:57.346Z,2.03
2022-10-27T21:14:05.809Z,2.00
2022-10-27T21:17:11.494Z,2.13
2022-10-27T21:20:14.152Z,2.30
2022-10-27T21:23:16.990Z,2.00
2022-10-27T21:26:20.867Z,2.08
2022-10-27T21:29:23.288Z,2.17
2022-10-27T21:32:27.239Z,2.45
2022-10-27T21:35:30.384Z,1.88
2022-10-27T21:38:37.859Z,2.40
2022-10-27T21:41:39.993Z,2.03
2022-10-27T21:44:42.585Z,2.10
2022-10-27T21:47:44.751Z,1.98
2022-10-27T21:50:47.763Z,2.17
2022-10-27T21:54:01.606Z,2.10
2022-10-27T21:57:05.038Z,1.80
2022-10-27T22:00:07.929Z,2.03
2022-10-27T22:03:10.316Z,2.10
2022-10-27T22:06:24.054Z,2.00
2022-10-27T22:09:26.832Z,2.03
2022-10-27T22:12:28.835Z,2.13
2022-10-27T22:15:31.193Z,2.00
2022-10-27T22:18:33.894Z,2.05
2022-10-27T22:21:39.362Z,2.22
2022-10-27T22:24:41.479Z,2.33
2022-10-27T22:27:44.107Z,2.67
2022-10-27T22:30:46.223Z,2.03
2022-10-27T22:33:49.811Z,2.13
2022-10-27T22:36:52.195Z,2.03
2022-10-27T22:39:54.758Z,2.22
2022-10-27T22:42:57.229Z,1.95
2022-10-27T22:45:59.992Z,2.30
2022-10-27T22:49:04.779Z,2.08
2022-10-27T22:52:07.817Z,2.03
2022-10-27T22:55:10.346Z,2.25
2022-10-27T22:58:12.701Z,2.25
2022-10-27T23:01:21.305Z,2.17
2022-10-27T23:04:24.019Z,2.38
2022-10-27T23:07:26.075Z,2.10
2022-10-27T23:10:28.482Z,2.65
2022-10-27T23:13:33.434Z,2.05
2022-10-27T23:16:36.587Z,2.80
2022-10-27T23:19:38.725Z,2.78
2022-10-27T23:22:41.330Z,2.30
2022-10-27T23:25:43.305Z,2.17
2022-10-27T23:28:55.660Z,2.08
2022-10-27T23:31:57.959Z,2.45
2022-10-27T23:35:00.573Z,2.40
2022-10-27T23:38:03.499Z,2.65
2022-10-27T23:41:06.124Z,2.65
2022-10-27T23:44:08.404Z,1.90
2022-10-27T23:47:11.030Z,2.58
2022-10-27T23:50:13.301Z,2.03
2022-10-27T23:53:15.888Z,2.33
2022-10-27T23:56:18.990Z,2.50
2022-10-27T23:59:21.459Z,2.72
